Terminal Aerodrome Forecast
Issued by NWS

Home | Current Version | Previous Version | Text Only | Print | Product List | Glossary On
Versions: 1 2 3 4 5 6 7 8 9 10 11 12 13 14 15 16 17 18 19 20 21 22 23 24 25 26 27 28 29 30 31 32 33
000
FTUS45 KGGW 301100
TAFGDV
TAF
KGDV 301140Z 3012/3112 18006KT P6SM SCT200
     FM301600 30008KT P6SM SCT200
     FM310000 01007KT P6SM BKN150
     FM310900 04010KT P6SM OVC025
      AMD LTD TO CLD VIS AND WIND=

USA.gov is the U.S. government's official web portal to all federal, state and local government web resources and services.